createdAt,value
2018-09-29T00:02:07.631Z,88.59
2018-09-29T00:04:36.657Z,89.01
2018-09-29T00:07:05.451Z,89.44
2018-09-29T00:09:34.209Z,89.57
2018-09-29T00:12:05.947Z,89.61
2018-09-29T00:14:34.830Z,89.78
2018-09-29T00:17:04.004Z,89.59
2018-09-29T00:19:33.086Z,89.63
2018-09-29T00:22:01.839Z,89.85
2018-09-29T00:24:31.072Z,89.93
2018-09-29T00:27:00.355Z,90.11
2018-09-29T00:29:29.796Z,89.69
2018-09-29T00:31:58.723Z,89.93
2018-09-29T00:34:27.881Z,89.78
2018-09-29T00:36:56.655Z,89.97
2018-09-29T00:39:25.470Z,89.99
2018-09-29T00:41:54.542Z,90.33
2018-09-29T00:44:23.550Z,90.16
2018-09-29T00:46:52.808Z,90.48
2018-09-29T00:49:21.866Z,90.81
2018-09-29T00:51:50.935Z,90.82
2018-09-29T00:54:19.941Z,90.95
2018-09-29T00:56:48.838Z,91.00
2018-09-29T00:59:17.901Z,91.00
2018-09-29T01:01:47.603Z,91.04
2018-09-29T01:04:16.941Z,91.38
2018-09-29T01:06:45.834Z,91.44
2018-09-29T01:09:14.786Z,92.18
2018-09-29T01:11:43.758Z,92.29
2018-09-29T01:14:12.751Z,92.54
2018-09-29T01:16:41.777Z,92.71
2018-09-29T01:19:10.845Z,92.64
2018-09-29T01:21:39.819Z,92.79
2018-09-29T01:24:08.626Z,92.47
2018-09-29T01:26:37.545Z,92.92
2018-09-29T01:29:06.475Z,92.72
2018-09-29T01:31:35.432Z,93.02
2018-09-29T01:34:04.712Z,92.83
2018-09-29T01:36:33.763Z,93.05
2018-09-29T01:39:03.278Z,93.02
2018-09-29T01:41:32.338Z,92.66
2018-09-29T01:44:01.284Z,92.18
2018-09-29T01:46:30.561Z,92.10
2018-09-29T01:48:59.370Z,92.26
2018-09-29T01:51:28.261Z,92.10
2018-09-29T01:53:58.095Z,92.29
2018-09-29T01:56:26.991Z,91.81
2018-09-29T01:58:56.614Z,92.05
2018-09-29T02:01:26.199Z,92.26
2018-09-29T02:03:55.132Z,92.25
2018-09-29T02:06:24.277Z,92.07
2018-09-29T02:08:53.219Z,92.27
2018-09-29T02:11:22.189Z,92.21
2018-09-29T02:13:51.166Z,92.53
2018-09-29T02:16:20.927Z,93.47
2018-09-29T02:18:50.621Z,93.54
2018-09-29T02:21:19.603Z,93.85
2018-09-29T02:23:48.381Z,93.66
2018-09-29T02:26:17.702Z,93.68
2018-09-29T02:28:46.985Z,94.80
2018-09-29T02:31:16.247Z,96.27
2018-09-29T02:33:45.439Z,96.96
2018-09-29T02:36:14.440Z,96.91
2018-09-29T02:38:43.558Z,96.83
2018-09-29T02:41:12.591Z,96.28
2018-09-29T02:43:41.430Z,96.00
2018-09-29T02:46:10.749Z,96.15
2018-09-29T02:48:39.573Z,95.89
2018-09-29T02:51:08.475Z,95.79
2018-09-29T02:53:37.268Z,95.63
2018-09-29T02:56:06.767Z,95.59
2018-09-29T02:58:35.621Z,95.90
2018-09-29T03:01:04.681Z,95.90
2018-09-29T03:03:33.624Z,95.80
2018-09-29T03:06:02.456Z,95.94
2018-09-29T03:08:31.643Z,96.05
2018-09-29T03:11:00.832Z,96.50
2018-09-29T03:13:30.696Z,96.26
2018-09-29T03:15:59.538Z,96.39
2018-09-29T03:18:28.505Z,96.10
2018-09-29T03:20:57.495Z,96.11
2018-09-29T03:23:26.279Z,96.39
2018-09-29T03:25:55.175Z,96.09
2018-09-29T03:28:23.993Z,96.50
2018-09-29T03:30:52.881Z,96.55
2018-09-29T03:33:22.534Z,96.82
2018-09-29T03:35:51.374Z,97.22
2018-09-29T03:38:20.247Z,97.47
2018-09-29T03:40:49.008Z,97.66
2018-09-29T03:43:17.934Z,97.42
2018-09-29T03:45:46.710Z,97.19
2018-09-29T03:48:15.507Z,96.80
2018-09-29T03:50:44.595Z,97.21
2018-09-29T03:53:13.459Z,97.41
2018-09-29T03:55:42.941Z,96.89
2018-09-29T03:58:11.767Z,97.11
2018-09-29T04:00:40.896Z,96.96
2018-09-29T04:03:09.664Z,96.96
2018-09-29T04:05:39.010Z,96.66
2018-09-29T04:08:08.199Z,97.18
2018-09-29T04:10:37.682Z,97.06
2018-09-29T04:13:06.575Z,97.05
2018-09-29T04:15:36.105Z,97.19
2018-09-29T04:18:04.953Z,97.03
2018-09-29T04:20:34.032Z,97.21
2018-09-29T04:23:03.175Z,97.36
2018-09-29T04:25:32.534Z,97.16
2018-09-29T04:28:01.883Z,97.58
2018-09-29T04:30:30.998Z,97.54
2018-09-29T04:33:00.039Z,97.51
2018-09-29T04:35:29.042Z,97.77
2018-09-29T04:37:57.957Z,97.82
2018-09-29T04:40:26.713Z,98.44
2018-09-29T04:42:55.496Z,98.24
2018-09-29T04:45:24.223Z,98.08
2018-09-29T04:47:53.393Z,98.33
2018-09-29T04:50:22.625Z,98.57
2018-09-29T04:52:51.799Z,98.42
2018-09-29T04:55:21.077Z,98.37
2018-09-29T04:57:49.829Z,98.46
2018-09-29T05:00:18.614Z,98.42
2018-09-29T05:02:47.470Z,97.92
2018-09-29T05:05:16.566Z,98.32
2018-09-29T05:07:45.510Z,97.98
2018-09-29T05:10:14.597Z,98.37
2018-09-29T05:12:43.390Z,98.33
2018-09-29T05:15:12.496Z,97.54
2018-09-29T05:17:41.619Z,98.12
2018-09-29T05:20:10.370Z,97.61
2018-09-29T05:22:39.591Z,98.08
2018-09-29T05:25:08.366Z,98.17
2018-09-29T05:27:37.485Z,97.76
2018-09-29T05:30:08.431Z,97.84
2018-09-29T05:32:37.272Z,98.25
2018-09-29T05:35:06.446Z,98.39
2018-09-29T05:37:35.289Z,98.51
2018-09-29T05:40:04.269Z,98.49
2018-09-29T05:42:33.031Z,98.25
2018-09-29T05:45:02.014Z,98.47
2018-09-29T05:47:31.116Z,98.73
2018-09-29T05:50:00.462Z,98.51
2018-09-29T05:52:29.523Z,98.75
2018-09-29T05:54:58.890Z,98.98
2018-09-29T05:57:28.289Z,99.07
2018-09-29T05:59:57.797Z,99.14
2018-09-29T06:02:26.982Z,98.94
2018-09-29T06:04:55.777Z,99.30
2018-09-29T06:07:24.647Z,98.99
2018-09-29T06:09:54.090Z,99.34
2018-09-29T06:12:22.814Z,100.00
2018-09-29T06:14:52.761Z,100.00
2018-09-29T06:17:22.654Z,100.00
2018-09-29T06:19:51.995Z,100.00
2018-09-29T06:22:20.743Z,100.00
2018-09-29T06:24:49.607Z,100.00
2018-09-29T06:27:18.459Z,100.00
2018-09-29T06:29:47.319Z,100.00
2018-09-29T06:32:16.474Z,100.00
2018-09-29T06:34:45.285Z,100.00
2018-09-29T06:37:14.336Z,100.00
2018-09-29T06:39:43.465Z,100.00
2018-09-29T06:42:12.263Z,100.00
2018-09-29T06:44:41.083Z,100.00
2018-09-29T06:47:10.384Z,100.00
2018-09-29T06:49:39.556Z,100.00
2018-09-29T06:52:08.342Z,100.00
2018-09-29T06:54:37.718Z,100.00
2018-09-29T06:57:06.450Z,100.00
2018-09-29T06:59:35.247Z,100.00
2018-09-29T07:02:04.083Z,100.00
2018-09-29T07:04:33.119Z,100.00
2018-09-29T07:07:01.927Z,100.00
2018-09-29T07:09:30.768Z,100.00
2018-09-29T07:11:59.920Z,100.00
2018-09-29T07:14:28.744Z,100.00
2018-09-29T07:16:57.810Z,100.00
2018-09-29T07:19:26.977Z,100.00
2018-09-29T07:21:55.850Z,100.00
2018-09-29T07:24:24.667Z,100.00
2018-09-29T07:26:53.834Z,100.00
2018-09-29T07:29:22.726Z,100.00
2018-09-29T07:31:51.637Z,100.00
2018-09-29T07:34:20.901Z,100.00
2018-09-29T07:36:50.396Z,100.00
2018-09-29T07:39:19.632Z,100.00
2018-09-29T07:41:48.437Z,100.00
2018-09-29T07:44:17.628Z,100.00
2018-09-29T07:46:46.663Z,100.00
2018-09-29T07:49:15.623Z,100.00
2018-09-29T07:51:46.509Z,100.00
2018-09-29T07:54:15.651Z,100.00
2018-09-29T07:56:44.400Z,100.00
2018-09-29T07:59:13.165Z,100.00
2018-09-29T08:01:42.164Z,100.00
2018-09-29T08:04:10.976Z,100.00
2018-09-29T08:06:39.818Z,100.00
2018-09-29T08:09:08.718Z,100.00
2018-09-29T08:11:37.574Z,99.76
2018-09-29T08:14:06.331Z,97.65
2018-09-29T08:16:35.091Z,97.36
2018-09-29T08:19:03.882Z,96.81
2018-09-29T08:21:32.635Z,94.44
2018-09-29T08:24:01.698Z,92.36
2018-09-29T08:26:30.507Z,88.87
2018-09-29T08:28:59.991Z,88.14
2018-09-29T08:31:28.767Z,87.94
2018-09-29T08:33:57.664Z,85.39
2018-09-29T08:36:26.409Z,84.18
2018-09-29T08:38:55.178Z,84.45
2018-09-29T08:41:23.984Z,84.12
2018-09-29T08:43:52.758Z,82.21
2018-09-29T08:46:21.844Z,80.39
2018-09-29T08:48:50.625Z,77.60
2018-09-29T08:51:19.629Z,77.36
2018-09-29T08:53:48.463Z,76.04
2018-09-29T08:56:17.285Z,75.99
2018-09-29T08:58:46.045Z,74.73
2018-09-29T09:01:15.149Z,75.53
2018-09-29T09:03:44.444Z,71.97
2018-09-29T09:06:13.341Z,73.11
2018-09-29T09:08:42.111Z,70.59
2018-09-29T09:11:11.390Z,70.13
2018-09-29T09:13:40.447Z,69.55
2018-09-29T09:16:09.878Z,70.25
2018-09-29T09:18:39.092Z,68.46
2018-09-29T09:21:07.879Z,67.69
2018-09-29T09:23:41.781Z,65.80
2018-09-29T09:26:10.530Z,67.34
2018-09-29T09:28:39.331Z,67.37
2018-09-29T09:31:08.501Z,65.17
2018-09-29T09:33:38.126Z,65.70
2018-09-29T09:36:08.341Z,64.25
2018-09-29T09:38:37.465Z,64.39
2018-09-29T09:41:06.233Z,60.50
2018-09-29T09:43:35.354Z,59.64
2018-09-29T09:46:04.091Z,57.85
2018-09-29T09:48:32.851Z,56.51
2018-09-29T09:51:01.938Z,57.90
2018-09-29T09:53:31.063Z,57.91
2018-09-29T09:56:00.550Z,59.17
2018-09-29T09:58:29.329Z,57.69
2018-09-29T10:01:03.301Z,59.11
2018-09-29T10:03:34.954Z,58.87
2018-09-29T10:06:03.745Z,58.88
2018-09-29T10:08:32.593Z,58.65
2018-09-29T10:11:01.805Z,59.09
2018-09-29T10:13:30.671Z,56.61
2018-09-29T10:15:59.798Z,57.21
2018-09-29T10:18:28.620Z,55.16
2018-09-29T10:20:57.453Z,55.12
2018-09-29T10:23:26.219Z,53.60
2018-09-29T10:25:54.986Z,53.66
2018-09-29T10:28:23.847Z,52.61
2018-09-29T10:30:52.691Z,52.93
2018-09-29T10:33:21.543Z,51.31
2018-09-29T10:35:50.717Z,52.25
2018-09-29T10:38:19.846Z,51.61
2018-09-29T10:40:49.476Z,51.36
2018-09-29T10:43:18.489Z,50.36
2018-09-29T10:45:47.270Z,49.67
2018-09-29T10:48:16.497Z,49.38
2018-09-29T10:50:45.524Z,48.58
2018-09-29T10:53:14.616Z,47.83
2018-09-29T10:55:43.714Z,47.29
2018-09-29T10:58:12.994Z,48.15
2018-09-29T11:00:41.787Z,48.24
2018-09-29T11:03:10.598Z,47.75
2018-09-29T11:05:39.422Z,47.96
2018-09-29T11:08:08.244Z,45.69
2018-09-29T11:10:37.218Z,45.58
2018-09-29T11:13:06.371Z,45.94
2018-09-29T11:15:35.458Z,45.62
2018-09-29T11:18:04.205Z,46.15
2018-09-29T11:20:33.417Z,45.91
2018-09-29T11:23:02.731Z,44.63
2018-09-29T11:25:31.806Z,42.59
2018-09-29T11:28:00.590Z,42.60
2018-09-29T11:30:29.340Z,43.51
2018-09-29T11:32:58.372Z,44.79
2018-09-29T11:35:27.191Z,41.97
2018-09-29T11:37:56.273Z,42.34
2018-09-29T11:40:25.272Z,43.34
2018-09-29T11:42:54.068Z,44.40
2018-09-29T11:45:22.842Z,40.17
2018-09-29T11:47:51.617Z,41.70
2018-09-29T11:50:20.712Z,41.34
2018-09-29T11:52:53.806Z,40.56
2018-09-29T11:55:22.998Z,40.27
2018-09-29T11:57:51.750Z,41.93
2018-09-29T12:00:20.537Z,42.30
2018-09-29T12:02:49.672Z,40.08
2018-09-29T12:05:18.805Z,40.82
2018-09-29T12:07:47.571Z,41.00
2018-09-29T12:10:16.834Z,39.48
2018-09-29T12:12:46.135Z,39.04
2018-09-29T12:15:15.751Z,39.27
2018-09-29T12:17:44.507Z,38.55
2018-09-29T12:20:13.247Z,38.45
2018-09-29T12:22:42.041Z,37.64
2018-09-29T12:25:10.819Z,38.31
2018-09-29T12:27:39.652Z,37.85
2018-09-29T12:30:08.830Z,36.84
2018-09-29T12:32:37.827Z,37.25
2018-09-29T12:35:07.009Z,36.91
2018-09-29T12:37:36.199Z,37.30
2018-09-29T12:40:05.681Z,35.85
2018-09-29T12:42:34.884Z,36.91
2018-09-29T12:45:03.893Z,38.58
2018-09-29T12:47:32.808Z,37.97
2018-09-29T12:50:01.836Z,37.53
2018-09-29T12:52:30.964Z,37.32
2018-09-29T12:54:59.810Z,36.90
2018-09-29T12:57:28.582Z,37.02
2018-09-29T12:59:57.400Z,37.27
2018-09-29T13:02:26.217Z,36.40
2018-09-29T13:04:54.938Z,37.43
2018-09-29T13:07:23.988Z,37.55
2018-09-29T13:09:53.451Z,36.28
2018-09-29T13:12:22.252Z,36.68
2018-09-29T13:14:51.009Z,36.38
2018-09-29T13:17:20.296Z,35.35
2018-09-29T13:19:49.043Z,35.32
2018-09-29T13:22:18.198Z,36.02
2018-09-29T13:24:47.827Z,36.02
2018-09-29T13:27:16.578Z,35.91
2018-09-29T13:29:45.713Z,34.12
2018-09-29T13:32:14.551Z,33.08
2018-09-29T13:34:43.441Z,33.69
2018-09-29T13:37:12.941Z,33.20
2018-09-29T13:39:41.997Z,34.70
2018-09-29T13:42:10.802Z,33.51
2018-09-29T13:44:39.570Z,32.87
2018-09-29T13:47:08.642Z,33.72
2018-09-29T13:49:37.921Z,33.58
2018-09-29T13:52:07.116Z,33.76
2018-09-29T13:54:36.247Z,34.21
2018-09-29T13:57:05.151Z,33.43
2018-09-29T13:59:33.921Z,32.78
2018-09-29T14:02:02.780Z,33.96
2018-09-29T14:04:32.654Z,33.36
2018-09-29T14:07:01.744Z,32.70
2018-09-29T14:09:30.544Z,31.17
2018-09-29T14:11:59.308Z,31.13
2018-09-29T14:14:28.440Z,31.28
2018-09-29T14:16:57.219Z,31.08
2018-09-29T14:19:26.781Z,31.41
2018-09-29T14:21:56.210Z,32.22
2018-09-29T14:24:25.181Z,33.04
2018-09-29T14:26:53.926Z,33.15
2018-09-29T14:29:23.009Z,33.85
2018-09-29T14:31:52.680Z,34.20
2018-09-29T14:34:21.925Z,33.28
2018-09-29T14:36:51.082Z,32.78
2018-09-29T14:39:20.457Z,32.24
2018-09-29T14:41:49.353Z,31.27
2018-09-29T14:44:18.174Z,32.68
2018-09-29T14:46:46.950Z,33.79
2018-09-29T14:49:16.076Z,34.74
2018-09-29T14:51:45.055Z,35.14
2018-09-29T14:54:13.837Z,35.72
2018-09-29T14:56:42.580Z,35.17
2018-09-29T14:59:11.697Z,33.77
2018-09-29T15:01:40.467Z,33.73
2018-09-29T15:04:09.996Z,34.82
2018-09-29T15:06:38.985Z,35.99
2018-09-29T15:09:10.757Z,35.89
2018-09-29T15:11:39.600Z,36.92
2018-09-29T15:14:08.916Z,37.34
2018-09-29T15:16:37.922Z,38.49
2018-09-29T15:19:07.328Z,38.21
2018-09-29T15:21:36.421Z,38.65
2018-09-29T15:24:05.409Z,38.60
2018-09-29T15:26:34.368Z,38.55
2018-09-29T15:29:03.245Z,39.16
2018-09-29T15:31:32.639Z,39.82
2018-09-29T15:34:02.059Z,40.70
2018-09-29T15:36:31.047Z,41.54
2018-09-29T15:38:59.902Z,42.00
2018-09-29T15:41:28.691Z,42.63
2018-09-29T15:43:57.518Z,43.54
2018-09-29T15:46:26.642Z,44.13
2018-09-29T15:48:55.368Z,44.38
2018-09-29T15:51:24.243Z,45.07
2018-09-29T15:53:53.087Z,44.97
2018-09-29T15:56:22.223Z,45.30
2018-09-29T15:58:51.170Z,44.89
2018-09-29T16:01:20.090Z,44.95
2018-09-29T16:03:49.031Z,44.79
2018-09-29T16:06:18.436Z,44.80
2018-09-29T16:08:47.976Z,45.13
2018-09-29T16:11:16.760Z,44.85
2018-09-29T16:13:46.134Z,45.53
2018-09-29T16:16:14.887Z,46.23
2018-09-29T16:18:43.675Z,46.68
2018-09-29T16:21:12.562Z,47.02
2018-09-29T16:23:41.802Z,47.30
2018-09-29T16:26:10.547Z,47.20
2018-09-29T16:28:39.325Z,47.68
2018-09-29T16:31:08.437Z,47.77
2018-09-29T16:33:37.193Z,48.32
2018-09-29T16:36:06.279Z,48.51
2018-09-29T16:38:35.123Z,48.99
2018-09-29T16:41:03.900Z,49.78
2018-09-29T16:43:33.169Z,50.17
2018-09-29T16:46:01.941Z,50.00
2018-09-29T16:48:30.761Z,49.62
2018-09-29T16:50:59.851Z,49.93
2018-09-29T16:53:28.671Z,50.31
2018-09-29T16:55:57.843Z,50.71
2018-09-29T16:58:26.570Z,51.55
2018-09-29T17:00:56.241Z,51.85
2018-09-29T17:03:25.060Z,52.19
2018-09-29T17:05:53.983Z,52.34
2018-09-29T17:08:23.143Z,52.22
2018-09-29T17:10:52.246Z,52.41
2018-09-29T17:13:20.973Z,53.10
2018-09-29T17:15:52.209Z,53.45
2018-09-29T17:18:22.163Z,53.51
2018-09-29T17:20:51.937Z,53.85
2018-09-29T17:23:21.800Z,53.72
2018-09-29T17:25:51.962Z,53.82
2018-09-29T17:28:22.437Z,54.07
2018-09-29T17:30:51.801Z,54.13
2018-09-29T17:33:20.601Z,54.50
2018-09-29T17:35:49.632Z,54.87
2018-09-29T17:38:18.732Z,55.19
2018-09-29T17:40:47.767Z,55.88
2018-09-29T17:43:16.916Z,55.88
2018-09-29T17:45:46.311Z,56.51
2018-09-29T17:48:15.557Z,56.67
2018-09-29T17:50:44.793Z,57.39
2018-09-29T17:53:13.887Z,57.48
2018-09-29T17:55:43.027Z,57.93
2018-09-29T17:58:12.273Z,58.53
2018-09-29T18:00:41.019Z,58.63
2018-09-29T18:03:10.100Z,58.96
2018-09-29T18:05:39.814Z,59.16
2018-09-29T18:08:09.034Z,59.61
2018-09-29T18:10:38.224Z,60.43
2018-09-29T18:13:07.224Z,60.24
2018-09-29T18:15:35.959Z,61.01
2018-09-29T18:18:04.750Z,61.53
2018-09-29T18:20:33.696Z,62.20
2018-09-29T18:23:02.723Z,62.27
2018-09-29T18:25:31.640Z,62.88
2018-09-29T18:28:00.400Z,63.08
2018-09-29T18:30:29.527Z,63.98
2018-09-29T18:32:58.360Z,64.21
2018-09-29T18:35:27.707Z,64.35
2018-09-29T18:37:56.736Z,64.28
2018-09-29T18:40:25.473Z,65.11
2018-09-29T18:42:54.262Z,65.23
2018-09-29T18:45:23.071Z,65.79
2018-09-29T18:47:52.086Z,65.86
2018-09-29T18:50:20.947Z,66.55
2018-09-29T18:52:50.300Z,66.90
2018-09-29T18:55:19.349Z,66.94
2018-09-29T18:57:48.155Z,67.46
2018-09-29T19:00:17.221Z,68.00
2018-09-29T19:02:46.230Z,68.11
2018-09-29T19:05:14.976Z,68.17
2018-09-29T19:07:43.799Z,68.67
2018-09-29T19:10:12.887Z,69.33
2018-09-29T19:12:42.240Z,69.16
2018-09-29T19:15:11.041Z,69.83
2018-09-29T19:17:40.477Z,70.09
2018-09-29T19:20:10.328Z,70.16
2018-09-29T19:22:39.057Z,70.68
2018-09-29T19:25:08.119Z,71.11
2018-09-29T19:27:36.920Z,71.18
2018-09-29T19:30:05.960Z,71.63
2018-09-29T19:32:34.987Z,71.86
2018-09-29T19:35:03.790Z,71.91
2018-09-29T19:37:32.830Z,72.61
2018-09-29T19:40:01.695Z,72.91
2018-09-29T19:42:30.451Z,72.73
2018-09-29T19:44:59.265Z,73.48
2018-09-29T19:47:28.049Z,73.46
2018-09-29T19:49:57.610Z,73.74
2018-09-29T19:52:26.569Z,73.74
2018-09-29T19:54:55.551Z,74.21
2018-09-29T19:57:24.332Z,74.84
2018-09-29T19:59:53.426Z,75.19
2018-09-29T20:02:22.535Z,74.95
2018-09-29T20:04:51.578Z,75.48
2018-09-29T20:07:20.723Z,75.85
2018-09-29T20:09:50.075Z,75.99
2018-09-29T20:12:19.044Z,76.75
2018-09-29T20:14:48.382Z,76.89
2018-09-29T20:17:17.724Z,76.99
2018-09-29T20:19:46.492Z,77.27
2018-09-29T20:22:15.586Z,77.13
2018-09-29T20:24:45.083Z,76.99
2018-09-29T20:27:13.813Z,76.96
2018-09-29T20:29:42.588Z,77.15
2018-09-29T20:32:11.311Z,77.08
2018-09-29T20:34:40.918Z,78.20
2018-09-29T20:37:09.741Z,78.22
2018-09-29T20:39:38.836Z,78.41
2018-09-29T20:42:07.873Z,79.01
2018-09-29T20:44:36.754Z,78.43
2018-09-29T20:47:05.912Z,78.29
2018-09-29T20:49:34.749Z,78.44
2018-09-29T20:52:03.824Z,78.90
2018-09-29T20:54:32.604Z,78.70
2018-09-29T20:57:01.530Z,80.26
2018-09-29T20:59:30.826Z,80.39
2018-09-29T21:01:59.556Z,80.97
2018-09-29T21:04:28.356Z,81.12
2018-09-29T21:06:57.109Z,81.12
2018-09-29T21:09:25.955Z,81.37
2018-09-29T21:11:55.038Z,81.34
2018-09-29T21:14:23.791Z,81.55
2018-09-29T21:16:52.940Z,81.54
2018-09-29T21:19:21.790Z,83.24
2018-09-29T21:21:50.598Z,83.25
2018-09-29T21:24:19.362Z,83.18
2018-09-29T21:26:48.130Z,83.46
2018-09-29T21:29:17.178Z,83.72
2018-09-29T21:31:46.378Z,83.93
2018-09-29T21:34:15.724Z,84.06
2018-09-29T21:36:44.486Z,84.22
2018-09-29T21:39:14.298Z,84.11
2018-09-29T21:41:43.721Z,84.04
2018-09-29T21:44:12.882Z,84.42
2018-09-29T21:46:41.668Z,85.00
2018-09-29T21:49:10.802Z,84.87
2018-09-29T21:51:39.575Z,85.32
2018-09-29T21:54:08.693Z,85.34
2018-09-29T21:56:37.436Z,85.53
2018-09-29T21:59:06.172Z,85.71
2018-09-29T22:01:36.209Z,86.04
2018-09-29T22:04:04.977Z,85.96
2018-09-29T22:06:33.818Z,85.97
2018-09-29T22:09:03.209Z,85.92
2018-09-29T22:11:32.007Z,85.80
2018-09-29T22:14:01.233Z,86.05
2018-09-29T22:16:30.588Z,85.77
2018-09-29T22:18:59.628Z,85.56
2018-09-29T22:21:28.709Z,85.76
2018-09-29T22:23:57.708Z,85.81
2018-09-29T22:26:26.430Z,85.64
2018-09-29T22:28:55.242Z,85.64
2018-09-29T22:31:24.680Z,85.81
2018-09-29T22:33:53.657Z,85.69
2018-09-29T22:36:22.542Z,85.95
2018-09-29T22:38:52.217Z,85.96
2018-09-29T22:41:21.074Z,85.91
2018-09-29T22:43:50.443Z,85.96
2018-09-29T22:46:20.476Z,85.89
2018-09-29T22:48:49.334Z,85.98
2018-09-29T22:51:18.160Z,85.96
2018-09-29T22:53:47.102Z,85.91
2018-09-29T22:56:15.959Z,86.16
2018-09-29T22:58:45.596Z,86.06
2018-09-29T23:01:14.525Z,86.06
2018-09-29T23:03:43.374Z,86.42
2018-09-29T23:06:12.398Z,86.20
2018-09-29T23:08:42.423Z,86.38
2018-09-29T23:11:11.244Z,86.60
2018-09-29T23:13:40.090Z,86.46
2018-09-29T23:16:09.339Z,86.39
2018-09-29T23:18:38.343Z,86.59
2018-09-29T23:21:07.762Z,86.59
2018-09-29T23:23:37.023Z,86.67
2018-09-29T23:26:06.119Z,86.77
2018-09-29T23:28:34.916Z,86.75
2018-09-29T23:31:04.031Z,86.94
2018-09-29T23:33:32.997Z,87.15
2018-09-29T23:36:02.458Z,87.05
2018-09-29T23:38:31.189Z,87.08
2018-09-29T23:41:00.635Z,86.97
2018-09-29T23:43:29.859Z,87.09
2018-09-29T23:45:58.674Z,87.17
2018-09-29T23:48:27.517Z,86.86
2018-09-29T23:50:56.378Z,87.00
2018-09-29T23:53:25.830Z,87.11
2018-09-29T23:55:55.099Z,86.86
2018-09-29T23:58:23.862Z,87.22
